鹿児島 の空港の天気 - METARとTAF

鹿児島空港 ( RJFK / KOJ ) - 鹿児島県溝辺町
飛行場実況気象(Metar)
観測時間10/17 21:00 JST (10/17 12:00 UTC)
風向・風速東 4m/s
視程10km以上
天気現象
少しの雲 雲底高度 150m
全天の8割程度の雲 雲底高度 1220m
気温19℃
湿度83%
気圧1018hPa
METARRJFK 171200Z 09007KT 020V140 9999 FEW005 BKN040 19/16 Q1018 RMK 1ST005 7SC040 A3006 VERY ROUGH AIR OBS AT 1145Z 5NM ON FNA RWY34 2500FT MSL IN DES B763
過去の天気等 Google飛行場航空写真 Wunderground天気予報

過去48時間のMETAR

飛行場予報(TAF)
発表時間: 10/17 20:16 JST (10/17 11:16 UTC)
予報対象時間: 17日21時 JST ~ 19日3時 JST
風向・風速東北東 3m/s
視程10km以上
少しの雲 雲底高度 150m
全天の8割程度の雲 雲底高度 910m
17日22時 JST ~ 17日24時 JST に徐々に
風向・風速北東 3m/s
TAF RJFK 171116Z 1712/1818 07006KT 9999 FEW005 BKN030
BECMG 1713/1715 05005KT
日本の空港のMETAR・TAFへのリンク

RJTT 東京国際空港
RJAA 新東京国際空港
RJBB 関西国際空港
RJOO 大阪空港
RJGG 中部国際空港
RJCC 新千歳空港
RJFF 福岡空港
ROAH 那覇空港


RJEC 旭川空港
RJCH 函館空港
RJCK 釧路空港
RJCM 女満別空港
RJCB 帯広空港
RJSA 青森空港
RJSS 仙台空港
RJSK 秋田空港
RJSF 福島空港
RJAH 茨城空港
RJSN 新潟空港
RJNT 富山空港
RJNK 小松飛行場
RJNS 静岡空港
RJOH 美保飛行場
RJOC 出雲空港
RJOB 岡山空港
RJOA 広島空港
RJOI 岩国飛行場
RJOT 高松空港
RJOM 松山空港
RJOK 高知空港
RJFR 北九州空港
RJFT 熊本空港
RJFU 長崎空港
RJFS 佐賀空港
RJFO 大分空港
RJFM 宮崎空港
RJFK 鹿児島空港
ROIG 石垣島空港
RJTY 横田飛行場
ROTM 普天間飛行場
RODN 嘉手納飛行場